sensor_id;sensor_type;location;lat;lon;timestamp;pressure;altitude;pressure_sealevel;temperature;humidity
28027;BME280;15344;52.342;-1.290;2023-02-22T00:00:55;99824.09;;;10.28;100.00
28027;BME280;15344;52.342;-1.290;2023-02-22T00:03:22;99823.02;;;10.81;100.00
28027;BME280;15344;52.342;-1.290;2023-02-22T00:05:46;99816.11;;;11.05;100.00
28027;BME280;15344;52.342;-1.290;2023-02-22T00:08:11;99802.89;;;11.40;100.00
28027;BME280;15344;52.342;-1.290;2023-02-22T00:10:37;99795.73;;;11.25;100.00
28027;BME280;15344;52.342;-1.290;2023-02-22T00:13:02;99784.90;;;11.35;100.00
28027;BME280;15344;52.342;-1.290;2023-02-22T00:15:27;99785.49;;;11.40;99.76
28027;BME280;15344;52.342;-1.290;2023-02-22T00:17:53;99780.78;;;11.78;97.28
28027;BME280;15344;52.342;-1.290;2023-02-22T00:20:18;99779.93;;;12.13;96.20
28027;BME280;15344;52.342;-1.290;2023-02-22T00:22:45;99773.66;;;12.18;95.64
28027;BME280;15344;52.342;-1.290;2023-02-22T00:25:09;99772.79;;;12.00;95.42
28027;BME280;15344;52.342;-1.290;2023-02-22T00:27:34;99773.50;;;12.53;92.48
28027;BME280;15344;52.342;-1.290;2023-02-22T00:29:59;99770.41;;;12.47;92.57
28027;BME280;15344;52.342;-1.290;2023-02-22T00:32:24;99758.34;;;11.83;95.48
28027;BME280;15344;52.342;-1.290;2023-02-22T00:34:51;99753.67;;;11.67;96.35
28027;BME280;15344;52.342;-1.290;2023-02-22T00:37:15;99753.57;;;11.88;96.05
28027;BME280;15344;52.342;-1.290;2023-02-22T00:39:40;99754.28;;;12.04;94.67
28027;BME280;15344;52.342;-1.290;2023-02-22T00:42:06;99757.80;;;12.16;94.71
28027;BME280;15344;52.342;-1.290;2023-02-22T00:44:31;99763.42;;;12.13;93.21
28027;BME280;15344;52.342;-1.290;2023-02-22T00:46:57;99756.07;;;11.91;96.09
28027;BME280;15344;52.342;-1.290;2023-02-22T00:49:22;99756.16;;;11.54;95.99
28027;BME280;15344;52.342;-1.290;2023-02-22T00:51:48;99756.94;;;11.55;97.68
28027;BME280;15344;52.342;-1.290;2023-02-22T00:54:14;99753.97;;;11.60;97.07
28027;BME280;15344;52.342;-1.290;2023-02-22T00:56:39;99746.01;;;11.45;98.06
28027;BME280;15344;52.342;-1.290;2023-02-22T00:59:04;99750.67;;;11.24;99.65
28027;BME280;15344;52.342;-1.290;2023-02-22T01:01:30;99751.51;;;10.61;100.00
28027;BME280;15344;52.342;-1.290;2023-02-22T01:03:55;99746.46;;;11.69;99.71
28027;BME280;15344;52.342;-1.290;2023-02-22T01:06:21;99756.08;;;11.28;100.00
28027;BME280;15344;52.342;-1.290;2023-02-22T01:08:47;99752.77;;;11.23;100.00
28027;BME280;15344;52.342;-1.290;2023-02-22T01:11:14;99753.90;;;11.28;100.00
28027;BME280;15344;52.342;-1.290;2023-02-22T01:13:38;99753.43;;;11.12;100.00
28027;BME280;15344;52.342;-1.290;2023-02-22T01:16:04;99746.66;;;10.64;100.00
28027;BME280;15344;52.342;-1.290;2023-02-22T01:18:29;99755.13;;;9.95;100.00
28027;BME280;15344;52.342;-1.290;2023-02-22T01:20:54;99753.55;;;10.32;100.00
28027;BME280;15344;52.342;-1.290;2023-02-22T01:23:20;99758.34;;;10.62;100.00
28027;BME280;15344;52.342;-1.290;2023-02-22T01:25:45;99762.25;;;10.53;100.00
28027;BME280;15344;52.342;-1.290;2023-02-22T01:28:10;99761.99;;;10.75;100.00
28027;BME280;15344;52.342;-1.290;2023-02-22T01:30:36;99760.46;;;10.83;100.00
28027;BME280;15344;52.342;-1.290;2023-02-22T01:33:03;99759.18;;;10.57;100.00
28027;BME280;15344;52.342;-1.290;2023-02-22T01:35:28;99753.94;;;10.06;100.00
28027;BME280;15344;52.342;-1.290;2023-02-22T01:37:52;99754.38;;;9.50;100.00
28027;BME280;15344;52.342;-1.290;2023-02-22T01:40:20;99747.41;;;9.67;100.00
28027;BME280;15344;52.342;-1.290;2023-02-22T01:42:44;99749.16;;;9.85;100.00
28027;BME280;15344;52.342;-1.290;2023-02-22T01:47:35;99743.97;;;10.16;100.00
28027;BME280;15344;52.342;-1.290;2023-02-22T01:50:01;99745.42;;;10.26;100.00
28027;BME280;15344;52.342;-1.290;2023-02-22T01:52:26;99744.69;;;9.94;100.00
28027;BME280;15344;52.342;-1.290;2023-02-22T01:54:55;99738.27;;;9.69;100.00
28027;BME280;15344;52.342;-1.290;2023-02-22T01:57:23;99736.24;;;9.67;100.00
28027;BME280;15344;52.342;-1.290;2023-02-22T01:59:46;99734.53;;;9.55;100.00
28027;BME280;15344;52.342;-1.290;2023-02-22T02:02:08;99731.95;;;9.58;100.00
28027;BME280;15344;52.342;-1.290;2023-02-22T02:04:34;99730.73;;;9.84;100.00
28027;BME280;15344;52.342;-1.290;2023-02-22T02:07:02;99731.77;;;10.05;100.00
28027;BME280;15344;52.342;-1.290;2023-02-22T02:09:30;99733.24;;;10.49;100.00
28027;BME280;15344;52.342;-1.290;2023-02-22T02:11:50;99731.37;;;10.67;100.00
28027;BME280;15344;52.342;-1.290;2023-02-22T02:14:16;99729.30;;;11.25;100.00
28027;BME280;15344;52.342;-1.290;2023-02-22T02:16:43;99729.45;;;10.89;100.00
28027;BME280;15344;52.342;-1.290;2023-02-22T02:19:12;99729.46;;;10.85;100.00
28027;BME280;15344;52.342;-1.290;2023-02-22T02:21:44;99729.38;;;11.15;100.00
28027;BME280;15344;52.342;-1.290;2023-02-22T02:24:10;99726.72;;;11.25;100.00
28027;BME280;15344;52.342;-1.290;2023-02-22T02:33:42;99714.47;;;10.47;100.00
28027;BME280;15344;52.342;-1.290;2023-02-22T02:36:09;99713.05;;;11.00;100.00
28027;BME280;15344;52.342;-1.290;2023-02-22T02:38:34;99716.63;;;10.41;100.00
28027;BME280;15344;52.342;-1.290;2023-02-22T02:41:04;99710.96;;;10.97;100.00
28027;BME280;15344;52.342;-1.290;2023-02-22T02:43:33;99707.18;;;10.88;100.00
28027;BME280;15344;52.342;-1.290;2023-02-22T02:45:53;99703.67;;;11.05;100.00
28027;BME280;15344;52.342;-1.290;2023-02-22T02:48:14;99696.56;;;11.57;100.00
28027;BME280;15344;52.342;-1.290;2023-02-22T02:50:42;99695.67;;;11.35;100.00
28027;BME280;15344;52.342;-1.290;2023-02-22T02:53:06;99695.56;;;11.69;100.00
28027;BME280;15344;52.342;-1.290;2023-02-22T02:55:30;99696.01;;;11.54;100.00
28027;BME280;15344;52.342;-1.290;2023-02-22T02:57:54;99698.98;;;11.07;100.00
28027;BME280;15344;52.342;-1.290;2023-02-22T03:00:23;99703.49;;;10.53;100.00
28027;BME280;15344;52.342;-1.290;2023-02-22T03:02:54;99700.69;;;11.31;100.00
28027;BME280;15344;52.342;-1.290;2023-02-22T03:05:29;99695.66;;;11.79;100.00
28027;BME280;15344;52.342;-1.290;2023-02-22T03:07:44;99695.64;;;10.93;100.00
28027;BME280;15344;52.342;-1.290;2023-02-22T03:10:12;99691.77;;;11.18;100.00
28027;BME280;15344;52.342;-1.290;2023-02-22T03:12:35;99693.74;;;11.15;100.00
28027;BME280;15344;52.342;-1.290;2023-02-22T03:15:06;99693.07;;;11.69;100.00
28027;BME280;15344;52.342;-1.290;2023-02-22T03:17:22;99693.20;;;11.79;100.00
28027;BME280;15344;52.342;-1.290;2023-02-22T03:19:46;99690.63;;;11.39;100.00
28027;BME280;15344;52.342;-1.290;2023-02-22T03:22:13;99690.69;;;10.95;100.00
28027;BME280;15344;52.342;-1.290;2023-02-22T03:24:38;99691.31;;;11.15;100.00
28027;BME280;15344;52.342;-1.290;2023-02-22T03:27:03;99691.75;;;10.62;100.00
28027;BME280;15344;52.342;-1.290;2023-02-22T03:29:28;99690.45;;;10.71;100.00
28027;BME280;15344;52.342;-1.290;2023-02-22T03:31:55;99688.13;;;11.11;100.00
28027;BME280;15344;52.342;-1.290;2023-02-22T03:34:21;99688.50;;;10.98;100.00
28027;BME280;15344;52.342;-1.290;2023-02-22T03:36:46;99683.14;;;11.08;100.00
28027;BME280;15344;52.342;-1.290;2023-02-22T03:39:12;99676.90;;;11.10;100.00
28027;BME280;15344;52.342;-1.290;2023-02-22T03:41:37;99673.19;;;11.18;100.00
28027;BME280;15344;52.342;-1.290;2023-02-22T03:44:03;99675.27;;;11.49;100.00
28027;BME280;15344;52.342;-1.290;2023-02-22T03:46:26;99670.40;;;11.17;100.00
28027;BME280;15344;52.342;-1.290;2023-02-22T03:48:54;99668.28;;;11.01;100.00
28027;BME280;15344;52.342;-1.290;2023-02-22T03:51:17;99668.04;;;10.72;100.00
28027;BME280;15344;52.342;-1.290;2023-02-22T03:53:42;99664.68;;;11.15;100.00
28027;BME280;15344;52.342;-1.290;2023-02-22T03:56:11;99663.84;;;11.07;100.00
28027;BME280;15344;52.342;-1.290;2023-02-22T03:58:34;99661.80;;;11.14;100.00
28027;BME280;15344;52.342;-1.290;2023-02-22T04:00:58;99661.03;;;10.65;100.00
28027;BME280;15344;52.342;-1.290;2023-02-22T04:03:23;99662.72;;;11.25;100.00
28027;BME280;15344;52.342;-1.290;2023-02-22T04:05:49;99662.62;;;10.86;100.00
28027;BME280;15344;52.342;-1.290;2023-02-22T04:08:15;99662.08;;;10.94;100.00
28027;BME280;15344;52.342;-1.290;2023-02-22T04:10:40;99655.08;;;10.62;100.00
28027;BME280;15344;52.342;-1.290;2023-02-22T04:13:05;99651.47;;;10.61;100.00
28027;BME280;15344;52.342;-1.290;2023-02-22T04:15:30;99643.94;;;11.06;100.00
28027;BME280;15344;52.342;-1.290;2023-02-22T04:17:56;99642.27;;;10.61;100.00
28027;BME280;15344;52.342;-1.290;2023-02-22T04:20:21;99639.90;;;10.88;100.00
28027;BME280;15344;52.342;-1.290;2023-02-22T04:22:46;99642.19;;;10.19;100.00
28027;BME280;15344;52.342;-1.290;2023-02-22T04:25:11;99633.45;;;10.96;100.00
28027;BME280;15344;52.342;-1.290;2023-02-22T04:27:37;99631.47;;;10.99;100.00
28027;BME280;15344;52.342;-1.290;2023-02-22T04:30:03;99631.75;;;10.79;100.00
28027;BME280;15344;52.342;-1.290;2023-02-22T04:32:28;99625.37;;;10.94;100.00
28027;BME280;15344;52.342;-1.290;2023-02-22T04:34:54;99622.80;;;11.31;100.00
28027;BME280;15344;52.342;-1.290;2023-02-22T04:37:19;99619.67;;;11.20;100.00
28027;BME280;15344;52.342;-1.290;2023-02-22T04:39:45;99615.42;;;11.72;100.00
28027;BME280;15344;52.342;-1.290;2023-02-22T04:42:11;99615.01;;;11.07;100.00
28027;BME280;15344;52.342;-1.290;2023-02-22T04:44:36;99608.31;;;11.09;100.00
28027;BME280;15344;52.342;-1.290;2023-02-22T04:47:01;99605.69;;;11.30;100.00
28027;BME280;15344;52.342;-1.290;2023-02-22T04:49:26;99606.53;;;10.85;100.00
28027;BME280;15344;52.342;-1.290;2023-02-22T04:51:51;99605.24;;;11.38;100.00
28027;BME280;15344;52.342;-1.290;2023-02-22T04:54:17;99603.75;;;10.84;100.00
28027;BME280;15344;52.342;-1.290;2023-02-22T04:56:43;99601.23;;;11.09;100.00
28027;BME280;15344;52.342;-1.290;2023-02-22T04:59:08;99605.71;;;11.18;100.00
28027;BME280;15344;52.342;-1.290;2023-02-22T05:01:35;99605.11;;;11.41;100.00
28027;BME280;15344;52.342;-1.290;2023-02-22T05:04:00;99602.47;;;10.72;100.00
28027;BME280;15344;52.342;-1.290;2023-02-22T05:06:24;99603.00;;;10.86;100.00
28027;BME280;15344;52.342;-1.290;2023-02-22T05:08:49;99602.86;;;10.96;100.00
28027;BME280;15344;52.342;-1.290;2023-02-22T05:11:15;99612.47;;;10.35;100.00
28027;BME280;15344;52.342;-1.290;2023-02-22T05:13:41;99607.94;;;10.81;100.00
28027;BME280;15344;52.342;-1.290;2023-02-22T05:16:06;99608.46;;;10.88;100.00
28027;BME280;15344;52.342;-1.290;2023-02-22T05:18:31;99606.94;;;10.99;100.00
28027;BME280;15344;52.342;-1.290;2023-02-22T05:20:57;99607.26;;;11.10;100.00
28027;BME280;15344;52.342;-1.290;2023-02-22T05:23:22;99606.03;;;11.32;100.00
28027;BME280;15344;52.342;-1.290;2023-02-22T05:25:48;99598.63;;;10.47;100.00
28027;BME280;15344;52.342;-1.290;2023-02-22T05:28:14;99601.74;;;10.09;100.00
28027;BME280;15344;52.342;-1.290;2023-02-22T05:30:39;99592.80;;;10.58;100.00
28027;BME280;15344;52.342;-1.290;2023-02-22T05:33:03;99588.47;;;10.52;100.00
28027;BME280;15344;52.342;-1.290;2023-02-22T05:35:29;99588.10;;;10.90;100.00
28027;BME280;15344;52.342;-1.290;2023-02-22T05:37:55;99591.49;;;11.23;100.00
28027;BME280;15344;52.342;-1.290;2023-02-22T05:40:23;99590.44;;;10.82;100.00
28027;BME280;15344;52.342;-1.290;2023-02-22T05:42:46;99593.38;;;10.69;100.00
28027;BME280;15344;52.342;-1.290;2023-02-22T05:45:12;99594.82;;;11.06;100.00
28027;BME280;15344;52.342;-1.290;2023-02-22T05:47:37;99595.47;;;10.66;100.00
28027;BME280;15344;52.342;-1.290;2023-02-22T05:50:03;99594.53;;;10.75;100.00
28027;BME280;15344;52.342;-1.290;2023-02-22T05:52:28;99596.02;;;11.44;100.00
28027;BME280;15344;52.342;-1.290;2023-02-22T05:54:53;99590.92;;;11.28;100.00
28027;BME280;15344;52.342;-1.290;2023-02-22T05:57:18;99589.13;;;10.98;100.00
28027;BME280;15344;52.342;-1.290;2023-02-22T05:59:44;99589.07;;;10.57;100.00
28027;BME280;15344;52.342;-1.290;2023-02-22T06:02:09;99591.50;;;10.61;100.00
28027;BME280;15344;52.342;-1.290;2023-02-22T06:04:35;99598.22;;;10.07;100.00
28027;BME280;15344;52.342;-1.290;2023-02-22T06:07:00;99592.27;;;10.70;100.00
28027;BME280;15344;52.342;-1.290;2023-02-22T06:09:26;99595.61;;;10.49;100.00
28027;BME280;15344;52.342;-1.290;2023-02-22T06:11:52;99586.70;;;10.71;100.00
28027;BME280;15344;52.342;-1.290;2023-02-22T06:14:17;99585.31;;;10.88;100.00
28027;BME280;15344;52.342;-1.290;2023-02-22T06:16:43;99581.56;;;10.74;100.00
28027;BME280;15344;52.342;-1.290;2023-02-22T06:19:08;99578.71;;;10.63;100.00
28027;BME280;15344;52.342;-1.290;2023-02-22T06:21:34;99577.18;;;10.78;100.00
28027;BME280;15344;52.342;-1.290;2023-02-22T06:24:01;99575.27;;;10.80;100.00
28027;BME280;15344;52.342;-1.290;2023-02-22T06:26:25;99576.79;;;11.41;100.00
28027;BME280;15344;52.342;-1.290;2023-02-22T06:28:50;99579.70;;;11.16;100.00
28027;BME280;15344;52.342;-1.290;2023-02-22T06:31:16;99577.42;;;11.21;100.00
28027;BME280;15344;52.342;-1.290;2023-02-22T06:33:42;99577.29;;;11.09;100.00
28027;BME280;15344;52.342;-1.290;2023-02-22T06:36:08;99576.17;;;10.61;100.00
28027;BME280;15344;52.342;-1.290;2023-02-22T06:38:33;99573.72;;;11.37;100.00
28027;BME280;15344;52.342;-1.290;2023-02-22T06:40:58;99574.61;;;12.01;99.11
28027;BME280;15344;52.342;-1.290;2023-02-22T06:43:24;99577.58;;;10.91;100.00
28027;BME280;15344;52.342;-1.290;2023-02-22T06:45:50;99573.22;;;11.38;100.00
28027;BME280;15344;52.342;-1.290;2023-02-22T06:48:16;99570.57;;;11.38;100.00
28027;BME280;15344;52.342;-1.290;2023-02-22T06:50:41;99577.15;;;10.53;100.00
28027;BME280;15344;52.342;-1.290;2023-02-22T06:53:07;99579.92;;;10.89;100.00
28027;BME280;15344;52.342;-1.290;2023-02-22T06:55:33;99584.30;;;11.03;100.00
28027;BME280;15344;52.342;-1.290;2023-02-22T06:57:59;99587.69;;;9.98;100.00
28027;BME280;15344;52.342;-1.290;2023-02-22T07:00:25;99582.87;;;10.45;100.00
28027;BME280;15344;52.342;-1.290;2023-02-22T07:02:50;99577.09;;;11.24;100.00
28027;BME280;15344;52.342;-1.290;2023-02-22T07:05:17;99580.88;;;11.39;100.00
28027;BME280;15344;52.342;-1.290;2023-02-22T07:07:40;99586.61;;;11.13;100.00
28027;BME280;15344;52.342;-1.290;2023-02-22T07:10:06;99588.47;;;10.23;100.00
28027;BME280;15344;52.342;-1.290;2023-02-22T07:12:31;99584.15;;;10.52;100.00
28027;BME280;15344;52.342;-1.290;2023-02-22T07:14:57;99576.43;;;10.65;100.00
28027;BME280;15344;52.342;-1.290;2023-02-22T07:17:22;99573.86;;;10.44;100.00
28027;BME280;15344;52.342;-1.290;2023-02-22T07:19:47;99576.57;;;10.37;100.00
28027;BME280;15344;52.342;-1.290;2023-02-22T07:22:13;99579.75;;;10.32;100.00
28027;BME280;15344;52.342;-1.290;2023-02-22T07:24:38;99579.34;;;9.83;100.00
28027;BME280;15344;52.342;-1.290;2023-02-22T07:27:04;99578.81;;;10.46;100.00
28027;BME280;15344;52.342;-1.290;2023-02-22T07:29:30;99580.34;;;10.42;100.00
28027;BME280;15344;52.342;-1.290;2023-02-22T07:31:56;99584.14;;;10.16;100.00
28027;BME280;15344;52.342;-1.290;2023-02-22T07:34:21;99581.04;;;9.96;100.00
28027;BME280;15344;52.342;-1.290;2023-02-22T07:36:47;99575.95;;;10.56;100.00
28027;BME280;15344;52.342;-1.290;2023-02-22T07:39:12;99590.00;;;10.38;100.00
28027;BME280;15344;52.342;-1.290;2023-02-22T07:41:38;99596.89;;;10.15;100.00
28027;BME280;15344;52.342;-1.290;2023-02-22T07:44:03;99605.46;;;9.81;100.00
28027;BME280;15344;52.342;-1.290;2023-02-22T07:46:28;99608.74;;;10.28;100.00
28027;BME280;15344;52.342;-1.290;2023-02-22T07:48:53;99602.17;;;10.37;100.00
28027;BME280;15344;52.342;-1.290;2023-02-22T07:51:19;99603.58;;;10.13;100.00
28027;BME280;15344;52.342;-1.290;2023-02-22T07:53:45;99609.80;;;9.99;100.00
28027;BME280;15344;52.342;-1.290;2023-02-22T07:56:10;99612.12;;;10.12;100.00
28027;BME280;15344;52.342;-1.290;2023-02-22T07:58:37;99613.71;;;10.11;100.00
28027;BME280;15344;52.342;-1.290;2023-02-22T08:01:01;99617.03;;;9.89;100.00
28027;BME280;15344;52.342;-1.290;2023-02-22T08:03:29;99617.55;;;10.15;100.00
28027;BME280;15344;52.342;-1.290;2023-02-22T08:05:53;99620.42;;;10.10;100.00
28027;BME280;15344;52.342;-1.290;2023-02-22T08:08:17;99619.03;;;10.36;100.00
28027;BME280;15344;52.342;-1.290;2023-02-22T08:10:43;99616.06;;;11.06;100.00
28027;BME280;15344;52.342;-1.290;2023-02-22T08:13:08;99616.32;;;10.63;100.00
28027;BME280;15344;52.342;-1.290;2023-02-22T08:15:34;99625.71;;;10.10;100.00
28027;BME280;15344;52.342;-1.290;2023-02-22T08:18:00;99613.76;;;10.79;100.00
28027;BME280;15344;52.342;-1.290;2023-02-22T08:20:24;99612.03;;;11.03;100.00
28027;BME280;15344;52.342;-1.290;2023-02-22T08:22:49;99612.59;;;10.70;100.00
28027;BME280;15344;52.342;-1.290;2023-02-22T08:25:16;99613.63;;;10.15;100.00
28027;BME280;15344;52.342;-1.290;2023-02-22T08:27:41;99610.20;;;10.24;100.00
28027;BME280;15344;52.342;-1.290;2023-02-22T08:30:09;99610.54;;;10.49;100.00
28027;BME280;15344;52.342;-1.290;2023-02-22T08:32:31;99611.16;;;10.20;100.00
28027;BME280;15344;52.342;-1.290;2023-02-22T08:34:57;99609.57;;;10.85;100.00
28027;BME280;15344;52.342;-1.290;2023-02-22T08:37:22;99614.76;;;10.45;100.00
28027;BME280;15344;52.342;-1.290;2023-02-22T08:39:48;99615.28;;;9.79;100.00
28027;BME280;15344;52.342;-1.290;2023-02-22T08:42:14;99610.77;;;10.82;100.00
28027;BME280;15344;52.342;-1.290;2023-02-22T08:44:39;99617.72;;;10.14;100.00
28027;BME280;15344;52.342;-1.290;2023-02-22T08:47:05;99615.79;;;10.03;100.00
28027;BME280;15344;52.342;-1.290;2023-02-22T08:49:30;99617.64;;;10.72;100.00
28027;BME280;15344;52.342;-1.290;2023-02-22T08:51:55;99619.74;;;10.34;100.00
28027;BME280;15344;52.342;-1.290;2023-02-22T08:54:21;99616.67;;;10.58;100.00
28027;BME280;15344;52.342;-1.290;2023-02-22T08:56:47;99617.02;;;10.80;100.00
28027;BME280;15344;52.342;-1.290;2023-02-22T08:59:12;99620.17;;;10.58;100.00
28027;BME280;15344;52.342;-1.290;2023-02-22T09:01:38;99620.48;;;11.38;100.00
28027;BME280;15344;52.342;-1.290;2023-02-22T09:04:02;99622.93;;;10.78;100.00
28027;BME280;15344;52.342;-1.290;2023-02-22T09:06:28;99624.56;;;10.94;100.00
28027;BME280;15344;52.342;-1.290;2023-02-22T09:08:52;99631.30;;;10.00;100.00
28027;BME280;15344;52.342;-1.290;2023-02-22T09:11:18;99629.59;;;9.69;100.00
28027;BME280;15344;52.342;-1.290;2023-02-22T09:13:45;99630.48;;;10.19;100.00
28027;BME280;15344;52.342;-1.290;2023-02-22T09:16:09;99622.35;;;10.52;100.00
28027;BME280;15344;52.342;-1.290;2023-02-22T09:18:35;99622.82;;;10.46;100.00
28027;BME280;15344;52.342;-1.290;2023-02-22T09:21:00;99623.23;;;10.67;100.00
28027;BME280;15344;52.342;-1.290;2023-02-22T09:23:26;99624.57;;;10.62;100.00
28027;BME280;15344;52.342;-1.290;2023-02-22T09:25:51;99624.36;;;11.43;100.00
28027;BME280;15344;52.342;-1.290;2023-02-22T09:28:17;99625.20;;;11.11;100.00
28027;BME280;15344;52.342;-1.290;2023-02-22T09:30:41;99625.97;;;10.78;100.00
28027;BME280;15344;52.342;-1.290;2023-02-22T09:33:08;99624.32;;;11.05;100.00
28027;BME280;15344;52.342;-1.290;2023-02-22T09:35:32;99629.76;;;10.96;100.00
28027;BME280;15344;52.342;-1.290;2023-02-22T09:37:59;99627.63;;;11.21;100.00
28027;BME280;15344;52.342;-1.290;2023-02-22T09:40:24;99632.35;;;11.22;100.00
28027;BME280;15344;52.342;-1.290;2023-02-22T09:42:57;99631.76;;;11.33;100.00
28027;BME280;15344;52.342;-1.290;2023-02-22T09:45:19;99638.54;;;11.80;100.00
28027;BME280;15344;52.342;-1.290;2023-02-22T09:47:42;99643.32;;;11.12;100.00
28027;BME280;15344;52.342;-1.290;2023-02-22T09:50:07;99643.78;;;11.04;100.00
28027;BME280;15344;52.342;-1.290;2023-02-22T09:52:31;99642.82;;;11.12;100.00
28027;BME280;15344;52.342;-1.290;2023-02-22T09:55:07;99644.38;;;11.24;100.00
28027;BME280;15344;52.342;-1.290;2023-02-22T09:57:26;99646.20;;;11.04;100.00
28027;BME280;15344;52.342;-1.290;2023-02-22T09:59:52;99650.58;;;11.13;100.00
28027;BME280;15344;52.342;-1.290;2023-02-22T10:02:19;99650.79;;;11.18;100.00
28027;BME280;15344;52.342;-1.290;2023-02-22T10:04:43;99649.60;;;11.82;100.00
28027;BME280;15344;52.342;-1.290;2023-02-22T10:07:09;99653.41;;;11.87;100.00
28027;BME280;15344;52.342;-1.290;2023-02-22T10:09:28;99648.49;;;11.78;100.00
28027;BME280;15344;52.342;-1.290;2023-02-22T10:11:57;99642.91;;;12.44;100.00
28027;BME280;15344;52.342;-1.290;2023-02-22T10:14:28;99644.25;;;12.35;100.00
28027;BME280;15344;52.342;-1.290;2023-02-22T10:16:51;99649.20;;;12.09;100.00
28027;BME280;15344;52.342;-1.290;2023-02-22T10:19:20;99649.45;;;11.76;100.00
28027;BME280;15344;52.342;-1.290;2023-02-22T10:21:45;99650.33;;;11.68;100.00
28027;BME280;15344;52.342;-1.290;2023-02-22T10:24:07;99647.67;;;12.56;100.00
28027;BME280;15344;52.342;-1.290;2023-02-22T10:26:28;99649.11;;;12.86;100.00
28027;BME280;15344;52.342;-1.290;2023-02-22T10:28:53;99653.19;;;12.25;100.00
28027;BME280;15344;52.342;-1.290;2023-02-22T10:31:20;99655.02;;;11.74;100.00
28027;BME280;15344;52.342;-1.290;2023-02-22T10:33:46;99656.88;;;11.84;100.00
28027;BME280;15344;52.342;-1.290;2023-02-22T10:36:14;99656.87;;;11.70;100.00
28027;BME280;15344;52.342;-1.290;2023-02-22T10:38:33;99657.16;;;12.49;100.00
28027;BME280;15344;52.342;-1.290;2023-02-22T10:41:00;99658.33;;;12.59;100.00
28027;BME280;15344;52.342;-1.290;2023-02-22T10:43:24;99658.84;;;11.97;100.00
28027;BME280;15344;52.342;-1.290;2023-02-22T10:45:51;99658.68;;;12.48;100.00
28027;BME280;15344;52.342;-1.290;2023-02-22T10:48:16;99660.26;;;13.05;100.00
28027;BME280;15344;52.342;-1.290;2023-02-22T10:50:43;99661.14;;;13.19;100.00
28027;BME280;15344;52.342;-1.290;2023-02-22T10:53:08;99665.22;;;12.06;100.00
28027;BME280;15344;52.342;-1.290;2023-02-22T10:55:32;99669.70;;;11.71;100.00
28027;BME280;15344;52.342;-1.290;2023-02-22T10:58:01;99670.23;;;12.64;99.82
28027;BME280;15344;52.342;-1.290;2023-02-22T11:00:29;99674.25;;;12.63;100.00
28027;BME280;15344;52.342;-1.290;2023-02-22T11:02:51;99673.24;;;12.73;100.00
28027;BME280;15344;52.342;-1.290;2023-02-22T11:07:39;99675.26;;;12.90;100.00
28027;BME280;15344;52.342;-1.290;2023-02-22T11:10:06;99677.84;;;12.26;100.00
28027;BME280;15344;52.342;-1.290;2023-02-22T11:12:32;99679.58;;;12.36;100.00
28027;BME280;15344;52.342;-1.290;2023-02-22T11:14:56;99680.33;;;12.82;100.00
28027;BME280;15344;52.342;-1.290;2023-02-22T11:17:28;99684.63;;;11.95;100.00
28027;BME280;15344;52.342;-1.290;2023-02-22T11:19:48;99685.26;;;11.05;100.00
28027;BME280;15344;52.342;-1.290;2023-02-22T11:22:17;99692.63;;;10.61;100.00
28027;BME280;15344;52.342;-1.290;2023-02-22T11:24:43;99695.24;;;10.77;100.00
28027;BME280;15344;52.342;-1.290;2023-02-22T11:27:03;99704.51;;;10.05;100.00
28027;BME280;15344;52.342;-1.290;2023-02-22T11:29:31;99702.31;;;10.48;100.00
28027;BME280;15344;52.342;-1.290;2023-02-22T11:31:54;99702.71;;;11.23;100.00
28027;BME280;15344;52.342;-1.290;2023-02-22T11:34:25;99703.74;;;11.16;100.00
28027;BME280;15344;52.342;-1.290;2023-02-22T11:36:43;99706.34;;;10.74;100.00
28027;BME280;15344;52.342;-1.290;2023-02-22T11:41:34;99710.26;;;10.07;100.00
28027;BME280;15344;52.342;-1.290;2023-02-22T11:46:27;99712.30;;;10.11;100.00
28027;BME280;15344;52.342;-1.290;2023-02-22T11:48:56;99709.24;;;10.06;100.00
28027;BME280;15344;52.342;-1.290;2023-02-22T11:51:27;99711.07;;;9.59;100.00
28027;BME280;15344;52.342;-1.290;2023-02-22T11:53:55;99714.53;;;10.49;100.00
28027;BME280;15344;52.342;-1.290;2023-02-22T11:56:13;99714.39;;;10.36;100.00
28027;BME280;15344;52.342;-1.290;2023-02-22T11:58:40;99713.19;;;11.65;100.00
28027;BME280;15344;52.342;-1.290;2023-02-22T12:01:03;99716.56;;;10.71;100.00
28027;BME280;15344;52.342;-1.290;2023-02-22T12:03:37;99715.81;;;12.43;99.20
28027;BME280;15344;52.342;-1.290;2023-02-22T12:05:58;99709.79;;;11.41;100.00
28027;BME280;15344;52.342;-1.290;2023-02-22T12:08:22;99710.93;;;12.39;100.00
28027;BME280;15344;52.342;-1.290;2023-02-22T12:10:53;99710.08;;;12.45;97.02
28027;BME280;15344;52.342;-1.290;2023-02-22T12:13:20;99714.42;;;12.60;95.24
28027;BME280;15344;52.342;-1.290;2023-02-22T12:15:35;99713.26;;;10.84;100.00
28027;BME280;15344;52.342;-1.290;2023-02-22T12:18:00;99723.37;;;9.53;100.00
28027;BME280;15344;52.342;-1.290;2023-02-22T12:20:23;99713.19;;;11.68;99.67
28027;BME280;15344;52.342;-1.290;2023-02-22T12:22:53;99719.39;;;11.27;97.42
28027;BME280;15344;52.342;-1.290;2023-02-22T12:25:17;99719.45;;;11.49;100.00
28027;BME280;15344;52.342;-1.290;2023-02-22T12:27:41;99719.39;;;11.11;100.00
28027;BME280;15344;52.342;-1.290;2023-02-22T12:30:06;99716.39;;;10.91;100.00
28027;BME280;15344;52.342;-1.290;2023-02-22T12:32:33;99717.51;;;10.81;100.00
28027;BME280;15344;52.342;-1.290;2023-02-22T12:34:55;99720.22;;;13.23;95.51
28027;BME280;15344;52.342;-1.290;2023-02-22T12:37:21;99723.93;;;11.38;96.79
28027;BME280;15344;52.342;-1.290;2023-02-22T12:39:51;99719.86;;;11.49;98.61
28027;BME280;15344;52.342;-1.290;2023-02-22T12:42:15;99723.63;;;11.60;97.65
28027;BME280;15344;52.342;-1.290;2023-02-22T12:44:36;99726.02;;;12.25;95.68
28027;BME280;15344;52.342;-1.290;2023-02-22T12:46:59;99724.12;;;12.06;91.66
28027;BME280;15344;52.342;-1.290;2023-02-22T12:49:30;99730.08;;;11.25;94.35